Time;durP1;ratioP1;P1;durP2;ratioP2;P2;SDS_P1;SDS_P2;PMS_P1;PMS_P2;Temp;Humidity;BMP_temperature;BMP_pressure;BME280_temperature;BME280_humidity;BME280_pressure;Samples;Min_cycle;Max_cycle;Signal;HPM_P1;HPM_P2
2023/04/03 00:00:24;;;;;;;5.10;3.20;;;;;0.20;94575.00;;;;7396898;19;20137;-84
2023/04/03 00:03:05;;;;;;;5.67;3.50;;;;;0.20;94579.00;;;;7397407;19;20148;-83
2023/04/03 00:05:39;;;;;;;7.10;3.30;;;;;0.20;94577.00;;;;7397093;19;20527;-83
2023/04/03 00:08:14;;;;;;;3.40;2.83;;;;;0.20;94575.00;;;;7399443;19;20138;-83
2023/04/03 00:10:42;;;;;;;4.47;3.20;;;;;0.20;94577.00;;;;7399366;19;20148;-82
2023/04/03 00:13:19;;;;;;;5.63;3.60;;;;;0.20;94571.00;;;;7396890;19;20152;-83
2023/04/03 00:15:46;;;;;;;3.53;3.20;;;;;0.20;94580.00;;;;7395601;19;20204;-82
2023/04/03 00:18:22;;;;;;;7.90;3.40;;;;;0.20;94586.00;;;;7389439;19;20156;-82
2023/04/03 00:20:50;;;;;;;5.00;3.10;;;;;0.30;94588.00;;;;7397421;19;20150;-83
2023/04/03 00:23:24;;;;;;;6.00;3.70;;;;;0.20;94579.00;;;;7396227;19;20576;-82
2023/04/03 00:25:58;;;;;;;6.93;3.77;;;;;0.30;94580.00;;;;7398537;19;20156;-83
2023/04/03 00:28:26;;;;;;;5.40;3.47;;;;;0.20;94575.00;;;;7397341;19;20151;-83
2023/04/03 00:31:00;;;;;;;5.27;3.33;;;;;0.20;94579.00;;;;7396658;19;20136;-83
2023/04/03 00:33:28;;;;;;;5.67;3.37;;;;;0.20;94580.00;;;;7396809;19;20647;-82
2023/04/03 00:36:10;;;;;;;6.30;3.13;;;;;0.20;94584.00;;;;7395061;19;20158;-83
2023/04/03 00:38:44;;;;;;;4.30;3.73;;;;;0.10;94576.00;;;;7396933;19;20596;-83
2023/04/03 00:41:18;;;;;;;3.77;3.13;;;;;0.20;94577.00;;;;7396415;19;20596;-82
2023/04/03 00:43:46;;;;;;;4.87;3.67;;;;;0.20;94583.00;;;;7398606;19;20121;-82
2023/04/03 00:46:21;;;;;;;6.63;3.77;;;;;0.20;94577.00;;;;7396877;19;20599;-83
2023/04/03 00:48:49;;;;;;;4.30;3.37;;;;;0.10;94576.00;;;;7397369;19;20504;-83
2023/04/03 00:51:25;;;;;;;4.73;3.50;;;;;0.20;94570.00;;;;7397463;19;20135;-83
2023/04/03 00:53:58;;;;;;;4.30;2.90;;;;;0.10;94567.00;;;;7397739;19;20608;-83
2023/04/03 00:56:35;;;;;;;4.87;3.13;;;;;0.10;94569.00;;;;7396585;19;20212;-83
2023/04/03 00:59:14;;;;;;;5.77;3.93;;;;;0.10;94567.00;;;;7396442;19;20145;-83
2023/04/03 01:01:52;;;;;;;6.67;3.90;;;;;0.10;94572.00;;;;7396248;19;20156;-88
2023/04/03 01:04:39;;;;;;;6.60;3.60;;;;;0.30;94570.00;;;;7397182;19;20144;-88
2023/04/03 01:07:18;;;;;;;5.73;3.60;;;;;0.20;94575.00;;;;7397463;19;20149;-88
2023/04/03 01:09:59;;;;;;;5.57;4.00;;;;;0.00;94563.00;;;;7398425;19;20117;-88
2023/04/03 01:12:29;;;;;;;6.60;3.80;;;;;0.00;94568.00;;;;7396509;19;20480;-87
2023/04/03 01:15:15;;;;;;;8.97;3.93;;;;;-0.10;94566.00;;;;7396038;19;20149;-89
2023/04/03 01:17:49;;;;;;;6.20;4.30;;;;;0.00;94570.00;;;;7396204;19;20630;-89
2023/04/03 01:20:35;;;;;;;6.33;4.17;;;;;-0.10;94573.00;;;;7397089;19;20132;-88
2023/04/03 01:23:13;;;;;;;5.93;4.03;;;;;0.00;94569.00;;;;7396654;19;20168;-89
2023/04/03 01:25:54;;;;;;;4.93;3.90;;;;;-0.10;94572.00;;;;7397808;19;20141;-85
2023/04/03 01:28:28;;;;;;;8.13;4.27;;;;;0.00;94570.00;;;;7398036;19;20159;-89
2023/04/03 01:31:29;;;;;;;4.33;3.53;;;;;0.00;94575.00;;;;7396544;19;20148;-85
2023/04/03 01:34:05;;;;;;;4.33;3.73;;;;;-0.20;94576.00;;;;7402562;19;20189;-86
2023/04/03 01:36:33;;;;;;;6.50;3.93;;;;;-0.20;94568.00;;;;7403658;19;20617;-86
2023/04/03 01:39:07;;;;;;;5.23;4.07;;;;;-0.20;94569.00;;;;7405085;19;20621;-86
2023/04/03 01:41:41;;;;;;;5.97;4.37;;;;;-0.30;94567.00;;;;7404453;19;20150;-85
2023/04/03 01:44:15;;;;;;;8.10;4.80;;;;;-0.30;94573.00;;;;7405783;19;20140;-85
2023/04/03 01:46:45;;;;;;;8.83;4.90;;;;;-0.30;94569.00;;;;7404861;19;20137;-85
2023/04/03 01:49:19;;;;;;;6.13;4.60;;;;;-0.30;94570.00;;;;7404298;19;20144;-85
2023/04/03 01:51:47;;;;;;;5.20;3.87;;;;;-0.30;94574.00;;;;7404958;19;20132;-84
2023/04/03 01:54:21;;;;;;;4.87;4.00;;;;;-0.30;94577.00;;;;7405236;19;20151;-85
2023/04/03 01:56:55;;;;;;;5.70;4.20;;;;;-0.30;94575.00;;;;7404267;19;20152;-84
2023/04/03 01:59:23;;;;;;;7.77;4.23;;;;;-0.40;94582.00;;;;7403696;19;20151;-85
2023/04/03 02:01:57;;;;;;;6.93;4.27;;;;;-0.30;94578.00;;;;7396390;19;20148;-86
2023/04/03 02:04:25;;;;;;;6.00;4.27;;;;;-0.30;94583.00;;;;7402448;19;20638;-85
2023/04/03 02:07:06;;;;;;;6.80;4.73;;;;;-0.30;94580.00;;;;7404978;19;20603;-85
2023/04/03 02:09:41;;;;;;;5.93;4.00;;;;;-0.40;94577.00;;;;7403872;19;20152;-85
2023/04/03 02:12:08;;;;;;;4.83;3.83;;;;;-0.40;94570.00;;;;7405630;19;20125;-85
2023/04/03 02:14:42;;;;;;;7.97;4.20;;;;;-0.40;94576.00;;;;7404418;19;20616;-85
2023/04/03 02:17:16;;;;;;;7.40;4.67;;;;;-0.40;94583.00;;;;7404505;19;20140;-85
2023/04/03 02:19:44;;;;;;;5.77;4.13;;;;;-0.40;94576.00;;;;7404742;19;20168;-86
2023/04/03 02:22:19;;;;;;;5.73;4.47;;;;;-0.30;94577.00;;;;7404063;19;20143;-86
2023/04/03 02:24:53;;;;;;;9.63;5.00;;;;;-0.40;94583.00;;;;7403674;19;20164;-86
2023/04/03 02:27:21;;;;;;;7.13;4.80;;;;;-0.40;94579.00;;;;7404791;19;20141;-86
2023/04/03 02:29:55;;;;;;;7.27;4.57;;;;;-0.40;94582.00;;;;7403528;19;20144;-86
2023/04/03 02:32:24;;;;;;;6.03;4.30;;;;;-0.40;94570.00;;;;7404614;19;20500;-86
2023/04/03 02:34:59;;;;;;;7.20;3.80;;;;;-0.40;94582.00;;;;7403144;19;20156;-86
2023/04/03 02:37:33;;;;;;;7.70;4.60;;;;;-0.40;94576.00;;;;7402865;19;20155;-86
2023/04/03 02:40:08;;;;;;;8.17;4.50;;;;;-0.50;94585.00;;;;7402692;19;20137;-85
2023/04/03 02:42:35;;;;;;;7.83;4.70;;;;;-0.50;94585.00;;;;7402594;19;20165;-86
2023/04/03 02:45:09;;;;;;;9.23;4.80;;;;;-0.50;94578.00;;;;7400921;19;20651;-86
2023/04/03 02:47:40;;;;;;;6.07;4.43;;;;;-0.50;94574.00;;;;7400393;19;20237;-86
2023/04/03 02:50:14;;;;;;;5.93;4.13;;;;;-0.60;94573.00;;;;7404324;19;20136;-86
2023/04/03 02:52:49;;;;;;;7.97;4.33;;;;;-0.60;94583.00;;;;7404420;19;20156;-86
2023/04/03 02:55:23;;;;;;;5.23;4.17;;;;;-0.60;94584.00;;;;7402029;19;20125;-86
2023/04/03 02:57:51;;;;;;;4.53;3.80;;;;;-0.60;94568.00;;;;7401185;19;20138;-85
2023/04/03 03:00:24;;;;;;;8.20;4.40;;;;;-0.50;94577.00;;;;7403347;19;20599;-87
2023/04/03 03:02:52;;;;;;;7.00;4.57;;;;;-0.60;94575.00;;;;7402150;19;20144;-88
2023/04/03 03:05:33;;;;;;;8.10;4.00;;;;;-0.70;94565.00;;;;7399182;19;20215;-88
2023/04/03 03:08:07;;;;;;;5.93;4.00;;;;;-0.70;94566.00;;;;7402275;19;20136;-88
2023/04/03 03:10:41;;;;;;;6.23;3.50;;;;;-0.80;94567.00;;;;7402925;19;20130;-87
2023/04/03 03:13:15;;;;;;;8.47;4.03;;;;;-0.80;94563.00;;;;7402313;19;20648;-87
2023/04/03 03:15:49;;;;;;;7.17;4.53;;;;;-0.80;94569.00;;;;7400581;19;20154;-87
2023/04/03 03:18:17;;;;;;;4.40;3.87;;;;;-0.80;94568.00;;;;7401830;19;20141;-87
2023/04/03 03:21:01;;;;;;;8.20;4.37;;;;;-0.90;94575.00;;;;7403120;19;20136;-87
2023/04/03 03:23:35;;;;;;;6.97;4.20;;;;;-0.80;94565.00;;;;7402870;19;20152;-88
2023/04/03 03:26:11;;;;;;;6.73;4.00;;;;;-0.90;94562.00;;;;7401158;19;20137;-88
2023/04/03 03:28:46;;;;;;;7.77;4.30;;;;;-1.00;94566.00;;;;7400897;19;20144;-87
2023/04/03 03:31:15;;;;;;;6.73;4.57;;;;;-0.90;94564.00;;;;7400861;19;20607;-88
2023/04/03 03:33:49;;;;;;;8.47;4.70;;;;;-0.90;94566.00;;;;7401823;19;20155;-85
2023/04/03 03:36:16;;;;;;;5.80;4.57;;;;;-0.90;94551.00;;;;7399566;19;20137;-85
2023/04/03 03:38:44;;;;;;;10.20;4.37;;;;;-0.90;94559.00;;;;7401561;19;20136;-84
2023/04/03 03:41:21;;;;;;;8.67;5.47;;;;;-0.90;94554.00;;;;7401504;19;20124;-84
2023/04/03 03:43:49;;;;;;;8.30;4.87;;;;;-0.90;94561.00;;;;7401169;19;20137;-86
2023/04/03 03:46:24;;;;;;;7.97;4.53;;;;;-0.80;94558.00;;;;7401533;19;20132;-86
2023/04/03 03:48:51;;;;;;;8.57;5.10;;;;;-0.90;94563.00;;;;7398942;19;20137;-86
2023/04/03 03:51:25;;;;;;;8.70;4.57;;;;;-0.80;94556.00;;;;7398951;19;20474;-82
2023/04/03 03:53:59;;;;;;;7.60;4.80;;;;;-0.90;94562.00;;;;7397659;19;20619;-82
2023/04/03 03:56:26;;;;;;;10.03;5.83;;;;;-0.70;94559.00;;;;7395875;19;20178;-82
2023/04/03 03:59:03;;;;;;;4.93;4.43;;;;;-0.80;94556.00;;;;7398311;19;20141;-82
2023/04/03 04:01:30;;;;;;;7.10;4.63;;;;;-0.70;94556.00;;;;7395384;19;20148;-81
2023/04/03 04:04:12;;;;;;;9.07;4.43;;;;;-0.70;94563.00;;;;7398189;19;20151;-80
2023/04/03 04:06:46;;;;;;;5.97;4.37;;;;;-0.60;94569.00;;;;7397779;19;20184;-81
2023/04/03 04:09:21;;;;;;;9.37;5.00;;;;;-0.70;94572.00;;;;7399327;19;20120;-80
2023/04/03 04:11:55;;;;;;;6.37;4.47;;;;;-0.60;94563.00;;;;7397450;19;20599;-83
2023/04/03 04:14:23;;;;;;;5.43;4.27;;;;;-0.60;94569.00;;;;7396948;19;20155;-80
2023/04/03 04:16:50;;;;;;;8.37;4.60;;;;;-0.60;94571.00;;;;7395255;19;20483;-81
2023/04/03 04:19:24;;;;;;;5.27;4.50;;;;;-0.50;94575.00;;;;7397764;19;20216;-80
2023/04/03 04:21:52;;;;;;;7.17;4.77;;;;;-0.50;94565.00;;;;7397349;19;20152;-81
2023/04/03 04:24:26;;;;;;;6.50;4.60;;;;;-0.60;94569.00;;;;7397597;19;20155;-81
2023/04/03 04:26:54;;;;;;;5.53;3.67;;;;;-0.60;94572.00;;;;7396786;19;20162;-81
2023/04/03 04:29:29;;;;;;;4.97;4.20;;;;;-0.50;94573.00;;;;7397359;19;20150;-80
2023/04/03 04:32:04;;;;;;;5.07;3.53;;;;;-0.60;94569.00;;;;7397530;19;20515;-82
2023/04/03 04:34:37;;;;;;;7.67;4.20;;;;;-0.50;94565.00;;;;7396882;19;20181;-80
2023/04/03 04:37:05;;;;;;;4.40;3.77;;;;;-0.50;94571.00;;;;7392036;19;20136;-83
2023/04/03 04:39:33;;;;;;;5.97;3.67;;;;;-0.50;94572.00;;;;7392275;19;20252;-82
2023/04/03 04:42:12;;;;;;;5.73;4.37;;;;;-0.60;94572.00;;;;7394273;19;20156;-83
2023/04/03 04:44:50;;;;;;;5.00;3.57;;;;;-0.50;94572.00;;;;7394767;19;20133;-83
2023/04/03 04:47:17;;;;;;;12.93;4.53;;;;;-0.50;94573.00;;;;7389592;19;20152;-83
2023/04/03 04:49:51;;;;;;;5.93;3.70;;;;;-0.50;94567.00;;;;7392292;19;20155;-84
2023/04/03 04:52:19;;;;;;;5.17;3.63;;;;;-0.50;94575.00;;;;7391999;19;20566;-83
2023/04/03 04:54:47;;;;;;;6.93;3.90;;;;;-0.50;94576.00;;;;7389416;19;20129;-83
2023/04/03 04:57:20;;;;;;;6.00;3.93;;;;;-0.40;94573.00;;;;7389950;19;20200;-83
2023/04/03 04:59:55;;;;;;;8.50;4.17;;;;;-0.50;94573.00;;;;7391530;19;20224;-80
2023/04/03 05:02:28;;;;;;;9.80;4.57;;;;;-0.50;94586.00;;;;7391365;19;20187;-81
2023/04/03 05:05:03;;;;;;;5.13;3.83;;;;;-0.50;94577.00;;;;7387781;19;20163;-81
2023/04/03 05:07:44;;;;;;;4.03;3.50;;;;;-0.40;94580.00;;;;7396791;19;20196;-80
2023/04/03 05:10:18;;;;;;;4.90;3.63;;;;;-0.40;94578.00;;;;7404509;19;20153;-81
2023/04/03 05:12:53;;;;;;;8.73;4.27;;;;;-0.50;94582.00;;;;7404636;19;20149;-81
2023/04/03 05:15:27;;;;;;;4.47;3.80;;;;;-0.60;94589.00;;;;7404461;19;20183;-81
2023/04/03 05:18:02;;;;;;;4.63;3.80;;;;;-0.40;94589.00;;;;7406107;19;20634;-81
2023/04/03 05:20:30;;;;;;;6.10;3.80;;;;;-0.40;94591.00;;;;7404515;19;20155;-80
2023/04/03 05:23:05;;;;;;;4.77;3.90;;;;;-0.40;94592.00;;;;7403221;19;20149;-84
2023/04/03 05:25:34;;;;;;;8.27;3.87;;;;;-0.30;94606.00;;;;7399090;19;20164;-82
2023/04/03 05:28:11;;;;;;;5.40;3.63;;;;;-0.30;94596.00;;;;7402883;19;20607;-81
2023/04/03 05:30:38;;;;;;;4.87;3.73;;;;;-0.30;94604.00;;;;7403712;19;20152;-82
2023/04/03 05:33:13;;;;;;;5.47;3.70;;;;;-0.20;94594.00;;;;7402657;19;20510;-82
2023/04/03 05:35:49;;;;;;;5.20;3.30;;;;;-0.20;94606.00;;;;7404007;19;20512;-82
2023/04/03 05:38:18;;;;;;;6.00;3.37;;;;;-0.20;94592.00;;;;7403277;19;20148;-81
2023/04/03 05:40:52;;;;;;;6.73;3.50;;;;;-0.20;94607.00;;;;7396548;19;20199;-81
2023/04/03 05:43:20;;;;;;;5.50;3.77;;;;;-0.10;94600.00;;;;7398330;19;20145;-82
2023/04/03 05:45:54;;;;;;;7.67;4.00;;;;;-0.10;94592.00;;;;7401946;19;20599;-81
2023/04/03 05:48:28;;;;;;;3.97;3.37;;;;;-0.20;94595.00;;;;7399032;19;20155;-83
2023/04/03 05:51:02;;;;;;;4.53;3.50;;;;;0.00;94591.00;;;;7401747;19;20156;-84
2023/04/03 05:53:35;;;;;;;5.70;3.00;;;;;0.10;94596.00;;;;7402097;19;20150;-84
2023/04/03 05:56:09;;;;;;;4.93;3.23;;;;;0.20;94591.00;;;;7402107;19;20152;-81
2023/04/03 05:58:37;;;;;;;2.97;2.67;;;;;0.20;94598.00;;;;7401491;19;20145;-81
2023/04/03 06:01:11;;;;;;;4.17;2.60;;;;;0.30;94598.00;;;;7401213;19;20148;-83
2023/04/03 06:03:40;;;;;;;2.87;2.30;;;;;0.30;94598.00;;;;7400984;19;20643;-83
2023/04/03 06:06:22;;;;;;;4.77;2.87;;;;;0.30;94601.00;;;;7401988;19;20147;-83
2023/04/03 06:08:49;;;;;;;5.10;3.23;;;;;0.40;94603.00;;;;7401603;19;20133;-83
2023/04/03 06:11:24;;;;;;;4.07;2.97;;;;;0.50;94603.00;;;;7401084;19;20611;-81
2023/04/03 06:14:00;;;;;;;4.37;3.17;;;;;0.40;94605.00;;;;7400871;19;20160;-81
2023/04/03 06:16:34;;;;;;;4.03;2.80;;;;;0.50;94609.00;;;;7400084;19;20180;-80
2023/04/03 06:19:10;;;;;;;3.27;2.80;;;;;0.50;94603.00;;;;7400467;19;20133;-81
2023/04/03 06:21:44;;;;;;;7.13;3.20;;;;;0.60;94609.00;;;;7400799;19;20156;-80
2023/04/03 06:24:21;;;;;;;4.47;2.93;;;;;0.70;94604.00;;;;7401292;19;20129;-79
2023/04/03 06:26:55;;;;;;;4.33;2.90;;;;;0.80;94605.00;;;;7400561;19;20491;-80
2023/04/03 06:29:23;;;;;;;3.07;2.77;;;;;0.90;94607.00;;;;7400506;19;20148;-80
2023/04/03 06:31:57;;;;;;;3.50;2.73;;;;;0.70;94603.00;;;;7400626;19;20611;-81
2023/04/03 06:34:25;;;;;;;3.27;2.50;;;;;1.20;94612.00;;;;7400355;19;20490;-80
2023/04/03 06:36:59;;;;;;;2.93;2.33;;;;;1.60;94614.00;;;;7400932;19;20150;-82
2023/04/03 06:39:27;;;;;;;3.30;2.87;;;;;1.40;94619.00;;;;7401759;19;20156;-81
2023/04/03 06:42:01;;;;;;;4.70;3.10;;;;;1.60;94616.00;;;;7397776;19;20148;-81
2023/04/03 06:44:29;;;;;;;2.90;2.60;;;;;2.10;94613.00;;;;7398367;19;20156;-81
2023/04/03 06:47:03;;;;;;;3.00;2.70;;;;;1.70;94617.00;;;;7396794;19;20758;-82
2023/04/03 06:49:31;;;;;;;4.87;2.70;;;;;1.30;94625.00;;;;7399612;19;20151;-81
2023/04/03 06:52:05;;;;;;;4.47;2.70;;;;;1.00;94618.00;;;;7401565;19;20602;-81
2023/04/03 06:54:40;;;;;;;3.90;2.80;;;;;1.00;94622.00;;;;7399789;19;20210;-81
2023/04/03 06:57:15;;;;;;;3.30;2.67;;;;;1.10;94619.00;;;;7398843;19;20480;-81
2023/04/03 06:59:49;;;;;;;4.40;2.43;;;;;1.20;94624.00;;;;7399631;19;20156;-81
2023/04/03 07:02:26;;;;;;;3.80;2.47;;;;;1.20;94626.00;;;;7397301;19;20245;-81
2023/04/03 07:05:00;;;;;;;3.40;2.60;;;;;1.40;94626.00;;;;7395906;19;20169;-81
2023/04/03 07:07:41;;;;;;;3.93;2.77;;;;;1.40;94629.00;;;;7397604;19;20165;-81
2023/04/03 07:10:09;;;;;;;4.13;2.83;;;;;1.50;94637.00;;;;7399431;19;20132;-81
2023/04/03 07:12:44;;;;;;;7.20;2.63;;;;;1.50;94640.00;;;;7400644;19;20136;-81
2023/04/03 07:15:13;;;;;;;4.10;2.40;;;;;1.90;94634.00;;;;7398288;19;20164;-81
2023/04/03 07:17:49;;;;;;;4.90;2.50;;;;;2.00;94635.00;;;;7398683;19;20638;-81
2023/04/03 07:20:22;;;;;;;5.70;2.70;;;;;1.90;94638.00;;;;7399990;19;20140;-82
2023/04/03 07:22:50;;;;;;;3.30;2.40;;;;;1.80;94637.00;;;;7399357;19;20171;-81
2023/04/03 07:25:25;;;;;;;4.43;2.70;;;;;1.90;94640.00;;;;7396978;19;20208;-81
2023/04/03 07:27:59;;;;;;;4.43;2.20;;;;;2.10;94643.00;;;;7401167;19;20163;-81
2023/04/03 07:30:33;;;;;;;5.57;2.70;;;;;2.50;94632.00;;;;7397675;19;20172;-82
2023/04/03 07:33:09;;;;;;;3.57;2.70;;;;;2.60;94650.00;;;;7399448;19;20145;-81
2023/04/03 07:35:37;;;;;;;4.77;2.67;;;;;2.90;94637.00;;;;7396264;19;20161;-81
2023/04/03 07:38:12;;;;;;;3.63;2.33;;;;;2.30;94650.00;;;;7396841;19;20140;-81
2023/04/03 07:40:49;;;;;;;2.70;2.50;;;;;2.10;94652.00;;;;7397630;19;20136;-81
2023/04/03 07:43:24;;;;;;;6.57;2.50;;;;;2.30;94649.00;;;;7399464;19;20158;-81
2023/04/03 07:45:53;;;;;;;4.07;2.43;;;;;2.70;94653.00;;;;7397753;19;20172;-82
2023/04/03 07:48:27;;;;;;;8.57;2.97;;;;;2.60;94649.00;;;;7395579;19;20160;-81
2023/04/03 07:51:00;;;;;;;6.73;2.60;;;;;2.60;94658.00;;;;7397414;19;20129;-82
2023/04/03 07:53:34;;;;;;;3.80;2.80;;;;;2.90;94654.00;;;;7397942;19;20140;-82
2023/04/03 07:56:02;;;;;;;3.70;2.97;;;;;3.00;94658.00;;;;7396408;19;20174;-82
2023/04/03 07:58:37;;;;;;;3.13;2.43;;;;;2.80;94656.00;;;;7395613;19;20144;-82
2023/04/03 08:01:05;;;;;;;6.60;2.50;;;;;3.10;94658.00;;;;7395968;19;20627;-82
2023/04/03 08:03:39;;;;;;;4.03;2.40;;;;;3.60;94662.00;;;;7394999;19;20165;-82
2023/04/03 08:06:20;;;;;;;3.90;2.53;;;;;3.60;94659.00;;;;7394574;19;20148;-84
2023/04/03 08:09:14;;;;;;;7.83;2.57;;;;;2.90;94670.00;;;;7396951;19;20628;-82
2023/04/03 08:11:48;;;;;;;5.23;2.87;;;;;3.20;94657.00;;;;7399061;19;20148;-83
2023/04/03 08:14:22;;;;;;;4.03;2.80;;;;;3.60;94664.00;;;;7396751;19;20152;-82
2023/04/03 08:16:50;;;;;;;4.73;2.60;;;;;3.60;94670.00;;;;7396795;19;20496;-82
2023/04/03 08:19:24;;;;;;;3.30;2.23;;;;;3.30;94670.00;;;;7395679;19;20132;-82
2023/04/03 08:21:58;;;;;;;3.20;2.60;;;;;3.30;94680.00;;;;7396957;19;20608;-82
2023/04/03 08:24:33;;;;;;;5.70;2.80;;;;;3.00;94675.00;;;;7396960;19;20729;-82
2023/04/03 08:27:02;;;;;;;2.90;2.60;;;;;3.00;94680.00;;;;7397168;19;20155;-82
2023/04/03 08:29:37;;;;;;;6.53;2.60;;;;;3.10;94673.00;;;;7397798;19;20180;-82
2023/04/03 08:32:12;;;;;;;4.77;2.90;;;;;3.00;94674.00;;;;7399354;19;20612;-83
2023/04/03 08:34:46;;;;;;;4.40;2.83;;;;;3.20;94671.00;;;;7397952;19;20207;-82
2023/04/03 08:37:16;;;;;;;5.67;2.80;;;;;3.40;94664.00;;;;7396823;19;20129;-83
2023/04/03 08:39:51;;;;;;;5.20;2.80;;;;;2.90;94676.00;;;;7395363;19;20173;-82
2023/04/03 08:42:45;;;;;;;5.57;3.00;;;;;3.50;94685.00;;;;7395182;19;20168;-82
2023/04/03 08:45:58;;;;;;;6.53;2.97;;;;;3.70;94683.00;;;;7401749;19;20531;-82
2023/04/03 08:48:36;;;;;;;3.50;2.47;;;;;3.40;94676.00;;;;7398528;19;20133;-82
2023/04/03 08:51:15;;;;;;;3.93;2.67;;;;;3.70;94674.00;;;;7403194;19;20133;-82
2023/04/03 08:54:04;;;;;;;3.80;2.73;;;;;3.90;94670.00;;;;7403297;19;20162;-83
2023/04/03 08:56:40;;;;;;;4.73;2.70;;;;;3.70;94690.00;;;;7401821;19;20133;-82
2023/04/03 08:59:29;;;;;;;4.03;2.50;;;;;3.80;94679.00;;;;7402775;19;20628;-82
2023/04/03 09:02:01;;;;;;;5.40;2.63;;;;;3.50;94684.00;;;;7399810;19;20523;-82
2023/04/03 09:04:43;;;;;;;3.90;2.63;;;;;3.40;94688.00;;;;7400423;19;20199;-82
2023/04/03 09:07:36;;;;;;;3.73;2.63;;;;;3.60;94685.00;;;;7401615;19;20154;-82
2023/04/03 09:10:22;;;;;;;5.23;3.10;;;;;4.30;94682.00;;;;7402668;19;20588;-82
2023/04/03 09:13:05;;;;;;;4.27;3.03;;;;;4.80;94684.00;;;;7401457;19;20136;-83
2023/04/03 09:15:40;;;;;;;6.10;2.50;;;;;4.50;94688.00;;;;7401019;19;20188;-82
2023/04/03 09:18:22;;;;;;;5.77;2.33;;;;;4.80;94685.00;;;;7401499;19;20152;-83
2023/04/03 09:21:31;;;;;;;5.67;2.90;;;;;4.90;94691.00;;;;7401364;19;20152;-83
2023/04/03 09:24:01;;;;;;;2.80;2.47;;;;;4.50;94694.00;;;;7401616;19;20634;-83
2023/04/03 09:27:07;;;;;;;3.40;2.23;;;;;5.00;94690.00;;;;7401708;19;20168;-83
2023/04/03 09:29:42;;;;;;;2.70;2.43;;;;;4.70;94684.00;;;;7401177;19;20514;-83
2023/04/03 09:32:19;;;;;;;2.60;2.33;;;;;5.00;94683.00;;;;7399737;19;20149;-83
2023/04/03 09:34:48;;;;;;;6.60;2.90;;;;;5.30;94669.00;;;;7401146;19;20472;-83
2023/04/03 09:38:05;;;;;;;4.40;2.50;;;;;5.00;94685.00;;;;7399900;19;20206;-83
2023/04/03 09:40:38;;;;;;;4.73;2.93;;;;;5.00;94689.00;;;;7398678;19;20144;-83
2023/04/03 09:43:24;;;;;;;8.03;2.60;;;;;4.90;94698.00;;;;7399883;19;20156;-82
2023/04/03 09:46:24;;;;;;;4.37;2.83;;;;;4.20;94698.00;;;;7398744;19;20141;-83
2023/04/03 09:48:58;;;;;;;3.60;2.60;;;;;4.20;94694.00;;;;7400044;19;20140;-82
2023/04/03 09:51:37;;;;;;;5.07;2.70;;;;;3.80;94698.00;;;;7401104;19;20132;-82
2023/04/03 09:54:40;;;;;;;5.23;2.57;;;;;4.20;94695.00;;;;7399876;19;20132;-82
2023/04/03 09:57:14;;;;;;;3.80;2.30;;;;;4.40;94696.00;;;;7398985;19;20136;-83
2023/04/03 09:59:59;;;;;;;3.73;2.50;;;;;4.20;94701.00;;;;7399249;19;20129;-82
2023/04/03 10:02:39;;;;;;;4.47;2.50;;;;;4.90;94683.00;;;;7395985;19;20151;-82
2023/04/03 10:05:42;;;;;;;4.13;2.43;;;;;4.50;94693.00;;;;7393727;19;20531;-84
2023/04/03 10:08:16;;;;;;;3.07;2.30;;;;;5.00;94684.00;;;;7399799;19;20156;-84
2023/04/03 10:10:46;;;;;;;5.70;2.50;;;;;5.40;94691.00;;;;7399883;19;20161;-84
2023/04/03 10:13:21;;;;;;;3.70;2.50;;;;;5.40;94689.00;;;;7400043;19;20207;-84
2023/04/03 10:16:14;;;;;;;3.33;2.33;;;;;5.00;94692.00;;;;7396886;19;20228;-84
2023/04/03 10:19:11;;;;;;;6.47;2.67;;;;;4.80;94679.00;;;;7397841;19;20988;-86
2023/04/03 10:21:49;;;;;;;3.87;2.70;;;;;5.00;94680.00;;;;7401709;19;20637;-85
2023/04/03 10:24:40;;;;;;;4.37;2.50;;;;;4.70;94682.00;;;;7402575;19;20146;-86
2023/04/03 10:27:42;;;;;;;8.80;2.70;;;;;4.10;94672.00;;;;7399306;19;20141;-86
2023/04/03 10:30:27;;;;;;;2.63;2.03;;;;;3.90;94684.00;;;;7398655;19;20511;-87
2023/04/03 10:33:26;;;;;;;2.70;1.80;;;;;4.20;94685.00;;;;7399695;19;20607;-84
2023/04/03 10:36:12;;;;;;;4.03;2.37;;;;;3.90;94693.00;;;;7398098;19;20659;-84
2023/04/03 10:38:54;;;;;;;5.97;2.10;;;;;3.80;94681.00;;;;7397897;19;20168;-84
2023/04/03 10:41:46;;;;;;;3.63;2.30;;;;;4.00;94681.00;;;;7398911;19;20136;-84
2023/04/03 10:44:52;;;;;;;3.07;2.30;;;;;4.10;94685.00;;;;7400038;19;20148;-84
2023/04/03 10:47:34;;;;;;;3.70;2.40;;;;;4.30;94684.00;;;;7394949;19;20615;-84
2023/04/03 10:50:35;;;;;;;3.67;2.07;;;;;4.00;94679.00;;;;7402062;19;20145;-84
2023/04/03 10:53:36;;;;;;;5.27;2.17;;;;;3.90;94694.00;;;;7400266;19;20145;-84
2023/04/03 10:56:31;;;;;;;4.17;2.30;;;;;3.60;94691.00;;;;7400673;19;20152;-87
2023/04/03 10:59:36;;;;;;;7.60;2.70;;;;;3.00;94691.00;;;;7398716;19;20612;-87
2023/04/03 11:02:07;;;;;;;7.43;2.47;;;;;3.10;94688.00;;;;7396422;19;20179;-86
2023/04/03 11:05:05;;;;;;;3.43;1.87;;;;;3.30;94683.00;;;;7399191;19;20140;-87
2023/04/03 11:07:45;;;;;;;3.60;2.10;;;;;3.60;94688.00;;;;7398625;19;20177;-86
2023/04/03 11:10:35;;;;;;;3.03;2.10;;;;;3.60;94691.00;;;;7399532;19;20164;-86
2023/04/03 11:13:13;;;;;;;3.27;2.20;;;;;3.30;94695.00;;;;7398634;19;20145;-85
2023/04/03 11:15:47;;;;;;;5.17;2.37;;;;;3.30;94682.00;;;;7399612;19;20495;-86
2023/04/03 11:18:35;;;;;;;4.37;2.27;;;;;3.80;94680.00;;;;7399288;19;20128;-86
2023/04/03 11:21:29;;;;;;;3.53;2.10;;;;;4.40;94681.00;;;;7398752;19;20192;-86
2023/04/03 11:24:01;;;;;;;3.70;2.10;;;;;5.00;94672.00;;;;7399624;19;20144;-86
2023/04/03 11:26:42;;;;;;;3.17;2.23;;;;;5.00;94667.00;;;;7398175;19;20140;-86
2023/04/03 11:29:16;;;;;;;3.77;1.90;;;;;4.50;94681.00;;;;7398203;19;20133;-86
2023/04/03 11:32:11;;;;;;;4.73;2.60;;;;;3.90;94674.00;;;;7399724;19;20133;-86
2023/04/03 11:34:45;;;;;;;3.13;2.20;;;;;3.50;94676.00;;;;7392766;19;20140;-86
2023/04/03 11:37:39;;;;;;;4.27;2.57;;;;;3.50;94677.00;;;;7393604;19;20149;-84
2023/04/03 11:40:17;;;;;;;3.53;2.17;;;;;3.80;94684.00;;;;7396334;19;20159;-84
2023/04/03 11:42:59;;;;;;;3.60;2.30;;;;;3.90;94680.00;;;;7397383;19;20174;-84
2023/04/03 11:45:55;;;;;;;4.47;2.23;;;;;4.00;94673.00;;;;7396981;19;20172;-84
2023/04/03 11:48:31;;;;;;;3.80;2.20;;;;;4.40;94685.00;;;;7393986;19;20532;-84
2023/04/03 11:51:20;;;;;;;5.27;2.03;;;;;4.50;94672.00;;;;7398272;19;20172;-83
2023/04/03 11:54:14;;;;;;;2.67;1.97;;;;;4.30;94679.00;;;;7397693;19;20659;-84
2023/04/03 11:56:50;;;;;;;4.30;2.13;;;;;4.00;94680.00;;;;7397369;19;20136;-84
2023/04/03 11:59:23;;;;;;;4.57;2.10;;;;;3.70;94677.00;;;;7396167;19;20152;-84
2023/04/03 12:01:58;;;;;;;4.53;2.63;;;;;3.30;94678.00;;;;7395863;19;20492;-84
2023/04/03 12:04:27;;;;;;;4.97;2.10;;;;;3.10;94668.00;;;;7396816;19;20129;-83
2023/04/03 12:07:19;;;;;;;3.33;2.47;;;;;3.20;94665.00;;;;7393937;19;20654;-83
2023/04/03 12:09:58;;;;;;;5.10;2.20;;;;;3.30;94668.00;;;;7393775;19;20494;-83
2023/04/03 12:12:39;;;;;;;3.30;2.13;;;;;3.10;94660.00;;;;7395880;19;20148;-83
2023/04/03 12:15:21;;;;;;;5.27;2.20;;;;;3.10;94664.00;;;;7397844;19;20133;-84
2023/04/03 12:17:50;;;;;;;3.47;2.17;;;;;3.10;94658.00;;;;7396761;19;20136;-84
2023/04/03 12:20:51;;;;;;;3.87;2.10;;;;;3.20;94660.00;;;;7395456;19;20129;-84
2023/04/03 12:23:35;;;;;;;5.53;2.40;;;;;3.10;94652.00;;;;7396615;19;20140;-84
2023/04/03 12:26:27;;;;;;;2.47;1.90;;;;;3.80;94651.00;;;;7395498;19;20140;-84
2023/04/03 12:29:24;;;;;;;3.37;2.13;;;;;4.00;94652.00;;;;7395558;19;20152;-84
2023/04/03 12:32:04;;;;;;;4.90;2.10;;;;;3.90;94651.00;;;;7395785;19;20135;-84
2023/04/03 12:34:57;;;;;;;2.67;1.90;;;;;3.70;94657.00;;;;7395964;19;20152;-85
2023/04/03 12:38:13;;;;;;;4.03;2.20;;;;;3.70;94648.00;;;;7394974;19;20133;-86
2023/04/03 12:41:17;;;;;;;6.03;2.07;;;;;3.40;94657.00;;;;7394616;19;20156;-84
2023/04/03 12:44:03;;;;;;;3.00;2.00;;;;;3.70;94654.00;;;;7396813;19;20614;-84
2023/04/03 12:46:45;;;;;;;4.03;1.80;;;;;3.80;94660.00;;;;7396707;19;20140;-85
2023/04/03 12:49:42;;;;;;;4.47;2.07;;;;;3.50;94648.00;;;;7399962;19;20196;-84
2023/04/03 12:52:39;;;;;;;3.43;2.20;;;;;3.80;94645.00;;;;7400248;19;20144;-84
2023/04/03 12:55:20;;;;;;;2.30;1.80;;;;;4.10;94642.00;;;;7398772;19;20144;-84
2023/04/03 12:57:48;;;;;;;10.80;3.87;;;;;4.10;94640.00;;;;7395688;19;20482;-84
2023/04/03 13:00:26;;;;;;;4.63;2.50;;;;;4.00;94648.00;;;;7393386;19;20147;-84
2023/04/03 13:02:54;;;;;;;3.80;2.40;;;;;3.70;94654.00;;;;7396223;19;20152;-84
2023/04/03 13:05:36;;;;;;;3.93;2.27;;;;;3.60;94644.00;;;;7394914;19;20477;-84
2023/04/03 13:08:16;;;;;;;3.40;2.17;;;;;3.60;94643.00;;;;7397425;19;20144;-84
2023/04/03 13:11:16;;;;;;;5.87;2.30;;;;;3.50;94640.00;;;;7397501;19;20133;-84
2023/04/03 13:14:05;;;;;;;4.97;2.07;;;;;3.60;94642.00;;;;7396962;19;20608;-84